createdAt,value
2019-04-03T00:02:54.802Z,49.60
2019-04-03T00:07:59.625Z,49.60
2019-04-03T00:13:05.635Z,49.60
2019-04-03T00:18:11.447Z,49.60
2019-04-03T00:23:17.901Z,49.70
2019-04-03T00:28:24.224Z,50.40
2019-04-03T00:33:31.072Z,49.80
2019-04-03T00:38:37.613Z,49.80
2019-04-03T00:43:44.500Z,49.70
2019-04-03T00:48:52.316Z,49.80
2019-04-03T00:54:01.282Z,49.90
2019-04-03T00:59:07.506Z,49.90
2019-04-03T01:04:14.053Z,49.80
2019-04-03T01:09:19.468Z,49.90
2019-04-03T01:14:25.868Z,49.80
2019-04-03T01:19:31.843Z,49.90
2019-04-03T01:24:39.064Z,49.90
2019-04-03T01:29:44.874Z,49.90
2019-04-03T01:34:50.370Z,50.50
2019-04-03T01:39:55.097Z,49.80
2019-04-03T01:45:01.569Z,49.70
2019-04-03T01:50:08.161Z,49.70
2019-04-03T01:55:14.320Z,49.70
2019-04-03T02:00:20.691Z,49.70
2019-04-03T02:05:27.426Z,49.80
2019-04-03T02:10:33.195Z,49.70
2019-04-03T02:15:38.979Z,49.70
2019-04-03T02:20:44.782Z,49.70
2019-04-03T02:25:51.664Z,49.70
2019-04-03T02:31:01.249Z,49.70
2019-04-03T02:36:06.971Z,49.60
2019-04-03T02:41:13.431Z,49.60
2019-04-03T02:46:19.832Z,49.70
2019-04-03T02:51:26.012Z,49.60
2019-04-03T02:56:32.101Z,49.60
2019-04-03T03:01:40.473Z,49.40
2019-04-03T03:06:46.125Z,49.50
2019-04-03T03:11:56.303Z,49.40
2019-04-03T03:17:01.357Z,49.50
2019-04-03T03:22:07.585Z,49.40
2019-04-03T03:27:16.009Z,49.50
2019-04-03T03:32:31.052Z,49.50
2019-04-03T03:37:34.105Z,49.40
2019-04-03T03:42:40.854Z,49.50
2019-04-03T03:47:47.656Z,49.50
2019-04-03T03:52:58.405Z,49.40
2019-04-03T03:58:06.038Z,49.40
2019-04-03T04:03:14.541Z,49.40
2019-04-03T04:08:21.536Z,49.40
2019-04-03T04:13:27.927Z,49.40
2019-04-03T04:18:33.533Z,49.40
2019-04-03T04:23:38.961Z,49.40
2019-04-03T04:34:50.644Z,49.50
2019-04-03T04:39:59.594Z,49.50
2019-04-03T04:45:06.026Z,49.40
2019-04-03T04:50:11.214Z,49.40
2019-04-03T04:55:17.389Z,49.40
2019-04-03T05:00:24.094Z,49.40
2019-04-03T05:05:31.404Z,49.40
2019-04-03T05:10:38.578Z,49.40
2019-04-03T05:15:46.447Z,49.40
2019-04-03T05:20:54.044Z,49.50
2019-04-03T05:26:01.866Z,49.50
2019-04-03T05:31:08.918Z,49.50
2019-04-03T05:36:17.358Z,49.50
2019-04-03T05:41:22.464Z,49.50
2019-04-03T05:46:30.195Z,49.70
2019-04-03T05:51:35.850Z,49.70
2019-04-03T05:56:43.400Z,49.70
2019-04-03T06:01:50.761Z,49.70
2019-04-03T06:06:57.069Z,49.70
2019-04-03T06:12:04.313Z,49.70
2019-04-03T06:17:11.871Z,49.60
2019-04-03T06:22:21.074Z,49.50
2019-04-03T06:27:28.966Z,49.70
2019-04-03T06:32:36.125Z,49.70
2019-04-03T06:37:42.736Z,49.70
2019-04-03T06:42:48.984Z,49.70
2019-04-03T06:47:54.978Z,49.60
2019-04-03T06:53:00.619Z,49.80
2019-04-03T06:58:07.138Z,49.80
2019-04-03T07:03:12.783Z,49.80
2019-04-03T07:08:30.178Z,49.90
2019-04-03T07:13:30.065Z,49.90
2019-04-03T07:18:37.073Z,49.90
2019-04-03T07:23:44.398Z,49.90
2019-04-03T07:28:50.617Z,49.90
2019-04-03T07:33:58.164Z,50.00
2019-04-03T07:39:05.434Z,50.00
2019-04-03T07:44:11.217Z,50.00
2019-04-03T07:49:18.421Z,49.80
2019-04-03T07:54:26.306Z,50.00
2019-04-03T07:59:35.194Z,49.90
2019-04-03T08:04:40.868Z,50.10
2019-04-03T08:09:46.895Z,49.90
2019-04-03T08:14:53.883Z,49.90
2019-04-03T08:19:59.985Z,49.90
2019-04-03T08:25:06.653Z,49.90
2019-04-03T08:30:13.765Z,50.00
2019-04-03T08:35:23.333Z,50.00
2019-04-03T08:40:28.059Z,50.00
2019-04-03T08:45:34.167Z,50.00
2019-04-03T08:50:40.556Z,50.10
2019-04-03T08:55:46.951Z,50.00
2019-04-03T09:00:52.674Z,50.10
2019-04-03T09:05:59.853Z,50.20
2019-04-03T09:11:07.313Z,50.20
2019-04-03T09:16:13.601Z,50.30
2019-04-03T09:21:22.049Z,50.30
2019-04-03T09:26:32.999Z,50.30
2019-04-03T09:31:37.484Z,50.30
2019-04-03T09:36:43.340Z,50.30
2019-04-03T09:41:50.930Z,50.80
2019-04-03T09:46:58.924Z,51.00
2019-04-03T09:52:04.841Z,50.50
2019-04-03T09:57:11.040Z,50.50
2019-04-03T10:02:20.184Z,50.60
2019-04-03T10:07:27.952Z,50.80
2019-04-03T10:12:35.647Z,51.50
2019-04-03T10:17:41.216Z,50.90
2019-04-03T10:22:47.633Z,50.90
2019-04-03T10:27:54.478Z,51.00
2019-04-03T10:33:00.389Z,51.10
2019-04-03T10:38:07.985Z,51.10
2019-04-03T10:43:16.046Z,51.10
2019-04-03T10:48:22.553Z,51.10
2019-04-03T10:53:29.040Z,51.20
2019-04-03T10:58:35.705Z,51.10
2019-04-03T11:03:42.750Z,51.20
2019-04-03T11:08:49.424Z,51.20
2019-04-03T11:13:54.885Z,51.20
2019-04-03T11:19:05.081Z,51.20
2019-04-03T11:24:08.185Z,51.20
2019-04-03T11:29:17.065Z,51.20
2019-04-03T11:34:23.543Z,51.20
2019-04-03T11:39:29.987Z,51.20
2019-04-03T11:44:37.133Z,51.10
2019-04-03T11:49:43.506Z,51.20
2019-04-03T11:54:52.338Z,51.30
2019-04-03T11:59:58.588Z,51.30
2019-04-03T12:05:04.983Z,51.20
2019-04-03T12:10:12.522Z,51.30
2019-04-03T12:15:21.121Z,51.30
2019-04-03T12:20:27.263Z,51.20
2019-04-03T12:25:34.836Z,51.20
2019-04-03T12:30:41.807Z,51.00
2019-04-03T12:35:47.566Z,51.00
2019-04-03T12:40:53.692Z,50.80
2019-04-03T12:46:02.255Z,50.90
2019-04-03T12:51:06.011Z,51.00
2019-04-03T12:56:11.377Z,51.10
2019-04-03T13:01:18.426Z,51.00
2019-04-03T13:06:25.743Z,50.80
2019-04-03T13:11:32.941Z,50.90
2019-04-03T13:16:41.744Z,50.90
2019-04-03T13:21:47.128Z,51.10
2019-04-03T13:26:53.090Z,50.80
2019-04-03T13:31:59.620Z,50.70
2019-04-03T13:37:05.413Z,50.70
2019-04-03T13:42:13.249Z,50.60
2019-04-03T13:47:18.532Z,51.20
2019-04-03T13:52:37.870Z,50.60
2019-04-03T13:57:32.153Z,50.50
2019-04-03T14:02:38.676Z,50.40
2019-04-03T14:07:46.210Z,50.30
2019-04-03T14:12:52.562Z,50.40
2019-04-03T14:17:59.596Z,50.40
2019-04-03T14:23:06.639Z,50.40
2019-04-03T14:28:12.337Z,50.40
2019-04-03T14:33:20.660Z,50.40
2019-04-03T14:38:29.089Z,50.30
2019-04-03T14:43:35.684Z,50.30
2019-04-03T14:48:41.636Z,50.40
2019-04-03T14:53:47.736Z,50.30
2019-04-03T14:58:53.833Z,50.30
2019-04-03T15:04:01.831Z,50.30
2019-04-03T15:09:10.251Z,50.10
2019-04-03T15:14:17.801Z,49.70
2019-04-03T15:19:25.104Z,50.30
2019-04-03T15:24:32.645Z,50.30
2019-04-03T15:29:38.850Z,50.30
2019-04-03T15:34:45.366Z,50.20
2019-04-03T15:39:57.024Z,50.20
2019-04-03T15:45:00.017Z,50.20
2019-04-03T15:50:07.429Z,50.20
2019-04-03T15:55:16.991Z,50.10
2019-04-03T16:00:34.790Z,50.10
2019-04-03T16:05:41.986Z,50.10
2019-04-03T16:10:48.482Z,50.10
2019-04-03T16:15:58.492Z,50.20
2019-04-03T16:21:03.844Z,50.20
2019-04-03T16:26:10.119Z,50.20
2019-04-03T16:31:19.757Z,50.20
2019-04-03T16:36:25.937Z,50.20
2019-04-03T16:41:31.456Z,50.10
2019-04-03T16:46:39.848Z,50.20
2019-04-03T16:51:45.627Z,50.20
2019-04-03T16:56:52.207Z,50.40
2019-04-03T17:01:57.803Z,50.30
2019-04-03T17:07:03.058Z,50.50
2019-04-03T17:12:08.837Z,50.50
2019-04-03T17:17:15.623Z,50.40
2019-04-03T17:22:22.554Z,50.40
2019-04-03T17:27:30.812Z,50.50
2019-04-03T17:32:37.641Z,50.60
2019-04-03T17:37:43.897Z,50.60
2019-04-03T17:42:49.157Z,50.50
2019-04-03T17:47:55.964Z,50.40
2019-04-03T17:53:01.361Z,50.50
2019-04-03T17:58:06.557Z,50.60
2019-04-03T18:03:14.229Z,50.70
2019-04-03T18:08:21.682Z,50.70
2019-04-03T18:13:27.721Z,50.80
2019-04-03T18:18:34.319Z,50.80
2019-04-03T18:23:48.628Z,50.80
2019-04-03T18:28:55.015Z,50.70
2019-04-03T18:34:01.242Z,50.70
2019-04-03T18:39:15.502Z,50.80
2019-04-03T18:44:26.032Z,50.70
2019-04-03T18:49:32.365Z,50.70
2019-04-03T18:54:42.134Z,50.70
2019-04-03T18:59:46.401Z,51.40
2019-04-03T19:05:01.690Z,50.80
2019-04-03T19:10:07.079Z,50.90
2019-04-03T19:15:08.055Z,50.90
2019-04-03T19:20:15.495Z,50.80
2019-04-03T19:25:22.243Z,50.90
2019-04-03T19:30:28.716Z,50.80
2019-04-03T19:35:34.983Z,50.80
2019-04-03T19:40:41.378Z,51.00
2019-04-03T19:45:47.897Z,50.80
2019-04-03T19:50:54.331Z,50.80
2019-04-03T19:56:00.706Z,50.90
2019-04-03T20:01:09.348Z,50.80
2019-04-03T20:06:16.236Z,50.90
2019-04-03T20:11:30.317Z,50.80
2019-04-03T20:16:37.004Z,50.80
2019-04-03T20:21:42.864Z,50.90
2019-04-03T20:26:49.201Z,51.00
2019-04-03T20:31:56.473Z,50.50
2019-04-03T20:37:02.148Z,50.90
2019-04-03T20:42:09.719Z,50.90
2019-04-03T20:47:16.254Z,50.90
2019-04-03T20:52:22.326Z,50.90
2019-04-03T20:57:31.078Z,50.90
2019-04-03T21:02:41.190Z,51.00
2019-04-03T21:07:45.111Z,51.00
2019-04-03T21:12:52.024Z,51.00
2019-04-03T21:17:58.325Z,51.00
2019-04-03T21:23:06.862Z,51.00
2019-04-03T21:28:13.340Z,51.00
2019-04-03T21:33:20.731Z,51.00
2019-04-03T21:38:27.894Z,51.00
2019-04-03T21:43:34.248Z,51.00
2019-04-03T21:48:39.968Z,51.00
2019-04-03T21:53:45.877Z,51.00
2019-04-03T21:58:53.107Z,51.10
2019-04-03T22:04:02.587Z,51.00
2019-04-03T22:09:14.685Z,51.00
2019-04-03T22:14:23.675Z,51.10
2019-04-03T22:19:29.428Z,51.00
2019-04-03T22:24:37.441Z,51.00
2019-04-03T22:29:43.671Z,51.10
2019-04-03T22:34:49.222Z,51.00
2019-04-03T22:39:56.087Z,51.00
2019-04-03T22:45:01.737Z,51.00
2019-04-03T22:50:08.280Z,51.10
2019-04-03T22:55:14.892Z,51.00
2019-04-03T23:00:20.716Z,51.00
2019-04-03T23:05:26.560Z,50.90
2019-04-03T23:10:32.116Z,51.00
2019-04-03T23:15:40.035Z,51.00
2019-04-03T23:20:45.879Z,51.20
2019-04-03T23:25:51.659Z,51.10
2019-04-03T23:30:57.291Z,51.10
2019-04-03T23:36:03.289Z,51.10
2019-04-03T23:41:10.580Z,51.00
2019-04-03T23:46:16.696Z,51.00
2019-04-03T23:51:25.481Z,51.10
2019-04-03T23:56:31.714Z,51.10
